sensor_id;sensor_type;location;lat;lon;timestamp;temperature;humidity
67050;DHT22;53955;52.442;13.284;2023-03-11T00:00:49;4.90;79.40
67050;DHT22;53955;52.442;13.284;2023-03-11T00:03:18;4.90;79.90
67050;DHT22;53955;52.442;13.284;2023-03-11T00:05:45;5.00;80.00
67050;DHT22;53955;52.442;13.284;2023-03-11T00:08:14;4.90;79.90
67050;DHT22;53955;52.442;13.284;2023-03-11T00:10:42;4.90;80.00
67050;DHT22;53955;52.442;13.284;2023-03-11T00:13:11;5.00;79.70
67050;DHT22;53955;52.442;13.284;2023-03-11T00:15:40;4.90;80.20
67050;DHT22;53955;52.442;13.284;2023-03-11T00:18:07;4.90;79.10
67050;DHT22;53955;52.442;13.284;2023-03-11T00:20:36;4.90;79.10
67050;DHT22;53955;52.442;13.284;2023-03-11T00:23:04;5.00;78.70
67050;DHT22;53955;52.442;13.284;2023-03-11T00:25:32;5.00;79.30
67050;DHT22;53955;52.442;13.284;2023-03-11T00:27:59;4.90;78.70
67050;DHT22;53955;52.442;13.284;2023-03-11T00:30:27;4.90;78.50
67050;DHT22;53955;52.442;13.284;2023-03-11T00:32:56;4.80;77.70
67050;DHT22;53955;52.442;13.284;2023-03-11T00:35:25;4.90;77.90
67050;DHT22;53955;52.442;13.284;2023-03-11T00:37:54;4.70;77.90
67050;DHT22;53955;52.442;13.284;2023-03-11T00:40:22;4.70;77.90
67050;DHT22;53955;52.442;13.284;2023-03-11T00:42:49;4.50;78.00
67050;DHT22;53955;52.442;13.284;2023-03-11T00:45:16;4.40;78.10
67050;DHT22;53955;52.442;13.284;2023-03-11T00:47:43;4.50;78.40
67050;DHT22;53955;52.442;13.284;2023-03-11T00:50:13;4.50;77.80
67050;DHT22;53955;52.442;13.284;2023-03-11T00:52:42;4.40;78.60
67050;DHT22;53955;52.442;13.284;2023-03-11T00:55:09;4.40;78.20
67050;DHT22;53955;52.442;13.284;2023-03-11T00:57:36;4.40;78.30
67050;DHT22;53955;52.442;13.284;2023-03-11T01:00:05;4.50;78.60
67050;DHT22;53955;52.442;13.284;2023-03-11T01:02:36;4.30;78.10
67050;DHT22;53955;52.442;13.284;2023-03-11T01:05:03;4.30;78.50
67050;DHT22;53955;52.442;13.284;2023-03-11T01:07:31;4.40;78.60
67050;DHT22;53955;52.442;13.284;2023-03-11T01:09:58;4.20;78.60
67050;DHT22;53955;52.442;13.284;2023-03-11T01:12:24;4.20;78.40
67050;DHT22;53955;52.442;13.284;2023-03-11T01:14:51;4.50;78.20
67050;DHT22;53955;52.442;13.284;2023-03-11T01:17:17;4.50;78.10
67050;DHT22;53955;52.442;13.284;2023-03-11T01:19:46;4.40;78.20
67050;DHT22;53955;52.442;13.284;2023-03-11T01:22:13;4.30;78.50
67050;DHT22;53955;52.442;13.284;2023-03-11T01:24:41;4.40;78.70
67050;DHT22;53955;52.442;13.284;2023-03-11T01:27:07;4.30;79.30
67050;DHT22;53955;52.442;13.284;2023-03-11T01:29:34;4.40;79.10
67050;DHT22;53955;52.442;13.284;2023-03-11T01:32:00;4.40;78.50
67050;DHT22;53955;52.442;13.284;2023-03-11T01:34:27;4.40;78.80
67050;DHT22;53955;52.442;13.284;2023-03-11T01:36:53;4.20;78.80
67050;DHT22;53955;52.442;13.284;2023-03-11T01:39:20;4.40;79.50
67050;DHT22;53955;52.442;13.284;2023-03-11T01:41:48;4.30;79.10
67050;DHT22;53955;52.442;13.284;2023-03-11T01:44:14;4.40;78.70
67050;DHT22;53955;52.442;13.284;2023-03-11T01:49:41;4.40;78.40
67050;DHT22;53955;52.442;13.284;2023-03-11T01:52:08;4.20;79.20
67050;DHT22;53955;52.442;13.284;2023-03-11T01:54:37;4.40;78.90
67050;DHT22;53955;52.442;13.284;2023-03-11T01:57:09;4.30;78.60
67050;DHT22;53955;52.442;13.284;2023-03-11T01:59:40;4.40;78.40
67050;DHT22;53955;52.442;13.284;2023-03-11T02:02:12;4.20;78.50
67050;DHT22;53955;52.442;13.284;2023-03-11T02:04:42;4.30;78.90
67050;DHT22;53955;52.442;13.284;2023-03-11T02:07:09;4.10;78.50
67050;DHT22;53955;52.442;13.284;2023-03-11T02:09:36;4.00;79.30
67050;DHT22;53955;52.442;13.284;2023-03-11T02:12:06;4.00;79.10
67050;DHT22;53955;52.442;13.284;2023-03-11T02:14:34;4.00;79.40
67050;DHT22;53955;52.442;13.284;2023-03-11T02:17:03;4.20;79.20
67050;DHT22;53955;52.442;13.284;2023-03-11T02:19:34;4.20;79.90
67050;DHT22;53955;52.442;13.284;2023-03-11T02:22:05;4.10;79.80
67050;DHT22;53955;52.442;13.284;2023-03-11T02:24:38;4.10;79.90
67050;DHT22;53955;52.442;13.284;2023-03-11T02:27:08;3.90;79.60
67050;DHT22;53955;52.442;13.284;2023-03-11T02:29:36;4.00;79.60
67050;DHT22;53955;52.442;13.284;2023-03-11T02:32:06;4.00;79.90
67050;DHT22;53955;52.442;13.284;2023-03-11T02:34:35;4.00;79.50
67050;DHT22;53955;52.442;13.284;2023-03-11T02:37:05;3.90;80.10
67050;DHT22;53955;52.442;13.284;2023-03-11T02:39:33;4.10;79.40
67050;DHT22;53955;52.442;13.284;2023-03-11T02:42:03;3.90;79.60
67050;DHT22;53955;52.442;13.284;2023-03-11T02:44:32;4.00;79.70
67050;DHT22;53955;52.442;13.284;2023-03-11T02:47:00;4.10;79.70
67050;DHT22;53955;52.442;13.284;2023-03-11T02:49:26;3.80;80.00
67050;DHT22;53955;52.442;13.284;2023-03-11T02:51:53;4.00;79.90
67050;DHT22;53955;52.442;13.284;2023-03-11T02:54:20;4.10;80.30
67050;DHT22;53955;52.442;13.284;2023-03-11T02:56:46;4.10;79.70
67050;DHT22;53955;52.442;13.284;2023-03-11T02:59:13;4.00;79.90
67050;DHT22;53955;52.442;13.284;2023-03-11T03:01:41;4.00;80.00
67050;DHT22;53955;52.442;13.284;2023-03-11T03:04:07;4.00;79.80
67050;DHT22;53955;52.442;13.284;2023-03-11T03:06:34;4.10;80.00
67050;DHT22;53955;52.442;13.284;2023-03-11T03:09:00;3.90;79.90
67050;DHT22;53955;52.442;13.284;2023-03-11T03:11:27;4.10;80.00
67050;DHT22;53955;52.442;13.284;2023-03-11T03:13:54;4.00;79.80
67050;DHT22;53955;52.442;13.284;2023-03-11T03:16:20;4.10;79.70
67050;DHT22;53955;52.442;13.284;2023-03-11T03:18:48;4.20;79.60
67050;DHT22;53955;52.442;13.284;2023-03-11T03:21:15;4.20;79.40
67050;DHT22;53955;52.442;13.284;2023-03-11T03:23:42;4.10;79.30
67050;DHT22;53955;52.442;13.284;2023-03-11T03:26:11;3.90;79.70
67050;DHT22;53955;52.442;13.284;2023-03-11T03:28:38;4.10;79.40
67050;DHT22;53955;52.442;13.284;2023-03-11T03:31:06;4.00;79.70
67050;DHT22;53955;52.442;13.284;2023-03-11T03:33:33;4.30;79.20
67050;DHT22;53955;52.442;13.284;2023-03-11T03:36:05;4.20;79.30
67050;DHT22;53955;52.442;13.284;2023-03-11T03:38:31;4.10;79.40
67050;DHT22;53955;52.442;13.284;2023-03-11T03:40:58;4.10;79.60
67050;DHT22;53955;52.442;13.284;2023-03-11T03:43:24;4.00;79.50
67050;DHT22;53955;52.442;13.284;2023-03-11T03:45:55;3.90;79.90
67050;DHT22;53955;52.442;13.284;2023-03-11T03:48:21;3.90;79.90
67050;DHT22;53955;52.442;13.284;2023-03-11T03:50:48;4.10;79.10
67050;DHT22;53955;52.442;13.284;2023-03-11T03:53:16;4.20;79.20
67050;DHT22;53955;52.442;13.284;2023-03-11T03:55:43;4.20;79.30
67050;DHT22;53955;52.442;13.284;2023-03-11T03:58:09;4.10;79.20
67050;DHT22;53955;52.442;13.284;2023-03-11T04:00:36;4.30;79.10
67050;DHT22;53955;52.442;13.284;2023-03-11T04:03:03;4.20;79.40
67050;DHT22;53955;52.442;13.284;2023-03-11T04:05:29;4.20;79.50
67050;DHT22;53955;52.442;13.284;2023-03-11T04:07:56;4.20;79.10
67050;DHT22;53955;52.442;13.284;2023-03-11T04:10:24;4.00;79.50
67050;DHT22;53955;52.442;13.284;2023-03-11T04:12:50;4.20;79.10
67050;DHT22;53955;52.442;13.284;2023-03-11T04:15:17;4.10;79.50
67050;DHT22;53955;52.442;13.284;2023-03-11T04:17:44;4.00;79.50
67050;DHT22;53955;52.442;13.284;2023-03-11T04:20:11;4.10;79.40
67050;DHT22;53955;52.442;13.284;2023-03-11T04:22:37;4.20;79.90
67050;DHT22;53955;52.442;13.284;2023-03-11T04:25:05;4.10;79.20
67050;DHT22;53955;52.442;13.284;2023-03-11T04:27:33;4.20;79.00
67050;DHT22;53955;52.442;13.284;2023-03-11T04:29:59;4.20;79.10
67050;DHT22;53955;52.442;13.284;2023-03-11T04:32:26;4.20;78.70
67050;DHT22;53955;52.442;13.284;2023-03-11T04:34:52;4.20;78.90
67050;DHT22;53955;52.442;13.284;2023-03-11T04:37:19;4.00;79.30
67050;DHT22;53955;52.442;13.284;2023-03-11T04:39:45;4.10;79.50
67050;DHT22;53955;52.442;13.284;2023-03-11T04:42:12;4.10;78.80
67050;DHT22;53955;52.442;13.284;2023-03-11T04:44:40;4.00;79.20
67050;DHT22;53955;52.442;13.284;2023-03-11T04:47:07;4.00;79.50
67050;DHT22;53955;52.442;13.284;2023-03-11T04:49:34;4.10;79.60
67050;DHT22;53955;52.442;13.284;2023-03-11T04:52:00;4.00;79.70
67050;DHT22;53955;52.442;13.284;2023-03-11T04:54:27;4.10;79.30
67050;DHT22;53955;52.442;13.284;2023-03-11T04:56:53;4.20;79.50
67050;DHT22;53955;52.442;13.284;2023-03-11T04:59:20;4.20;79.30
67050;DHT22;53955;52.442;13.284;2023-03-11T05:01:48;4.10;79.30
67050;DHT22;53955;52.442;13.284;2023-03-11T05:04:15;4.20;79.20
67050;DHT22;53955;52.442;13.284;2023-03-11T05:06:41;4.00;79.10
67050;DHT22;53955;52.442;13.284;2023-03-11T05:09:08;4.00;79.30
67050;DHT22;53955;52.442;13.284;2023-03-11T05:11:34;4.00;79.40
67050;DHT22;53955;52.442;13.284;2023-03-11T05:14:01;4.10;79.30
67050;DHT22;53955;52.442;13.284;2023-03-11T05:16:28;4.10;79.60
67050;DHT22;53955;52.442;13.284;2023-03-11T05:18:56;4.10;79.50
67050;DHT22;53955;52.442;13.284;2023-03-11T05:21:22;4.10;79.50
67050;DHT22;53955;52.442;13.284;2023-03-11T05:23:49;4.30;79.30
67050;DHT22;53955;52.442;13.284;2023-03-11T05:26:15;4.20;78.90
67050;DHT22;53955;52.442;13.284;2023-03-11T05:28:42;4.10;79.00
67050;DHT22;53955;52.442;13.284;2023-03-11T05:31:09;4.20;79.80
67050;DHT22;53955;52.442;13.284;2023-03-11T05:33:36;4.20;78.70
67050;DHT22;53955;52.442;13.284;2023-03-11T05:36:06;4.20;78.90
67050;DHT22;53955;52.442;13.284;2023-03-11T05:38:33;4.20;78.70
67050;DHT22;53955;52.442;13.284;2023-03-11T05:40:59;4.00;79.30
67050;DHT22;53955;52.442;13.284;2023-03-11T05:43:26;4.00;78.90
67050;DHT22;53955;52.442;13.284;2023-03-11T05:45:52;4.00;78.60
67050;DHT22;53955;52.442;13.284;2023-03-11T05:48:19;4.10;78.60
67050;DHT22;53955;52.442;13.284;2023-03-11T05:50:45;4.10;79.00
67050;DHT22;53955;52.442;13.284;2023-03-11T05:53:13;3.90;78.40
67050;DHT22;53955;52.442;13.284;2023-03-11T05:55:40;4.10;78.50
67050;DHT22;53955;52.442;13.284;2023-03-11T05:58:06;4.00;78.80
67050;DHT22;53955;52.442;13.284;2023-03-11T06:00:33;4.20;78.80
67050;DHT22;53955;52.442;13.284;2023-03-11T06:02:59;3.80;79.00
67050;DHT22;53955;52.442;13.284;2023-03-11T06:05:26;4.10;78.30
67050;DHT22;53955;52.442;13.284;2023-03-11T06:07:53;4.10;79.10
67050;DHT22;53955;52.442;13.284;2023-03-11T06:10:20;4.10;79.10
67050;DHT22;53955;52.442;13.284;2023-03-11T06:12:47;4.20;79.50
67050;DHT22;53955;52.442;13.284;2023-03-11T06:15:14;4.20;79.00
67050;DHT22;53955;52.442;13.284;2023-03-11T06:17:40;4.20;78.30
67050;DHT22;53955;52.442;13.284;2023-03-11T06:20:08;4.20;78.00
67050;DHT22;53955;52.442;13.284;2023-03-11T06:22:35;4.30;78.00
67050;DHT22;53955;52.442;13.284;2023-03-11T06:25:01;4.10;78.10
67050;DHT22;53955;52.442;13.284;2023-03-11T06:27:29;4.00;78.80
67050;DHT22;53955;52.442;13.284;2023-03-11T06:29:56;4.20;78.60
67050;DHT22;53955;52.442;13.284;2023-03-11T06:32:23;4.00;78.10
67050;DHT22;53955;52.442;13.284;2023-03-11T06:34:50;4.30;78.20
67050;DHT22;53955;52.442;13.284;2023-03-11T06:37:17;4.20;78.30
67050;DHT22;53955;52.442;13.284;2023-03-11T06:39:43;4.10;78.70
67050;DHT22;53955;52.442;13.284;2023-03-11T06:42:10;4.10;78.40
67050;DHT22;53955;52.442;13.284;2023-03-11T06:44:38;4.30;78.30
67050;DHT22;53955;52.442;13.284;2023-03-11T06:47:05;4.20;78.30
67050;DHT22;53955;52.442;13.284;2023-03-11T06:49:31;4.20;77.40
67050;DHT22;53955;52.442;13.284;2023-03-11T06:51:58;4.10;78.00
67050;DHT22;53955;52.442;13.284;2023-03-11T06:54:25;4.30;77.00
67050;DHT22;53955;52.442;13.284;2023-03-11T06:56:51;4.30;75.90
67050;DHT22;53955;52.442;13.284;2023-03-11T06:59:18;4.10;76.60
67050;DHT22;53955;52.442;13.284;2023-03-11T07:01:48;4.10;76.70
67050;DHT22;53955;52.442;13.284;2023-03-11T07:04:15;4.20;75.40
67050;DHT22;53955;52.442;13.284;2023-03-11T07:06:41;4.10;75.90
67050;DHT22;53955;52.442;13.284;2023-03-11T07:09:08;4.20;77.10
67050;DHT22;53955;52.442;13.284;2023-03-11T07:11:35;4.10;76.50
67050;DHT22;53955;52.442;13.284;2023-03-11T07:14:02;4.20;76.60
67050;DHT22;53955;52.442;13.284;2023-03-11T07:16:29;4.10;76.40
67050;DHT22;53955;52.442;13.284;2023-03-11T07:18:58;4.40;76.00
67050;DHT22;53955;52.442;13.284;2023-03-11T07:21:29;4.20;76.20
67050;DHT22;53955;52.442;13.284;2023-03-11T07:23:57;4.40;75.70
67050;DHT22;53955;52.442;13.284;2023-03-11T07:26:25;4.30;75.30
67050;DHT22;53955;52.442;13.284;2023-03-11T07:28:53;4.30;75.50
67050;DHT22;53955;52.442;13.284;2023-03-11T07:31:22;4.30;75.40
67050;DHT22;53955;52.442;13.284;2023-03-11T07:33:49;4.40;75.80
67050;DHT22;53955;52.442;13.284;2023-03-11T07:36:18;4.40;75.70
67050;DHT22;53955;52.442;13.284;2023-03-11T07:38:45;5.30;75.40
67050;DHT22;53955;52.442;13.284;2023-03-11T07:41:13;7.00;66.80
67050;DHT22;53955;52.442;13.284;2023-03-11T07:43:41;7.90;63.30
67050;DHT22;53955;52.442;13.284;2023-03-11T07:46:10;8.70;60.30
67050;DHT22;53955;52.442;13.284;2023-03-11T07:48:38;9.20;58.10
67050;DHT22;53955;52.442;13.284;2023-03-11T07:51:08;9.10;57.60
67050;DHT22;53955;52.442;13.284;2023-03-11T07:53:37;8.60;58.50
67050;DHT22;53955;52.442;13.284;2023-03-11T07:56:06;7.70;58.80
67050;DHT22;53955;52.442;13.284;2023-03-11T07:58:32;7.00;61.90
67050;DHT22;53955;52.442;13.284;2023-03-11T08:01:04;6.50;64.00
67050;DHT22;53955;52.442;13.284;2023-03-11T08:03:31;6.10;65.90
67050;DHT22;53955;52.442;13.284;2023-03-11T08:05:58;5.70;67.10
67050;DHT22;53955;52.442;13.284;2023-03-11T08:08:24;5.50;68.60
67050;DHT22;53955;52.442;13.284;2023-03-11T08:10:53;5.70;69.70
67050;DHT22;53955;52.442;13.284;2023-03-11T08:13:19;5.80;68.30
67050;DHT22;53955;52.442;13.284;2023-03-11T08:15:46;5.70;68.10
67050;DHT22;53955;52.442;13.284;2023-03-11T08:18:12;5.30;67.90
67050;DHT22;53955;52.442;13.284;2023-03-11T08:20:39;5.40;68.40
67050;DHT22;53955;52.442;13.284;2023-03-11T08:23:05;5.30;70.50
67050;DHT22;53955;52.442;13.284;2023-03-11T08:25:32;5.30;71.00
67050;DHT22;53955;52.442;13.284;2023-03-11T08:28:00;5.80;70.90
67050;DHT22;53955;52.442;13.284;2023-03-11T08:30:26;6.10;70.50
67050;DHT22;53955;52.442;13.284;2023-03-11T08:32:53;6.30;69.30
67050;DHT22;53955;52.442;13.284;2023-03-11T08:35:20;6.40;68.60
67050;DHT22;53955;52.442;13.284;2023-03-11T08:37:46;6.40;67.00
67050;DHT22;53955;52.442;13.284;2023-03-11T08:40:13;6.70;68.90
67050;DHT22;53955;52.442;13.284;2023-03-11T08:42:40;7.40;63.90
67050;DHT22;53955;52.442;13.284;2023-03-11T08:45:09;7.60;64.10
67050;DHT22;53955;52.442;13.284;2023-03-11T08:47:37;7.20;63.10
67050;DHT22;53955;52.442;13.284;2023-03-11T08:50:05;6.90;63.70
67050;DHT22;53955;52.442;13.284;2023-03-11T08:52:31;6.30;64.80
67050;DHT22;53955;52.442;13.284;2023-03-11T08:54:58;6.00;66.30
67050;DHT22;53955;52.442;13.284;2023-03-11T08:57:25;5.90;68.60
67050;DHT22;53955;52.442;13.284;2023-03-11T08:59:51;5.80;68.90
67050;DHT22;53955;52.442;13.284;2023-03-11T09:02:19;5.90;68.80
67050;DHT22;53955;52.442;13.284;2023-03-11T09:04:46;6.10;66.60
67050;DHT22;53955;52.442;13.284;2023-03-11T09:07:13;6.10;67.80
67050;DHT22;53955;52.442;13.284;2023-03-11T09:09:40;5.80;68.50
67050;DHT22;53955;52.442;13.284;2023-03-11T09:12:07;5.60;70.30
67050;DHT22;53955;52.442;13.284;2023-03-11T09:14:34;5.60;69.30
67050;DHT22;53955;52.442;13.284;2023-03-11T09:17:01;5.50;71.10
67050;DHT22;53955;52.442;13.284;2023-03-11T09:19:29;5.60;70.00
67050;DHT22;53955;52.442;13.284;2023-03-11T09:21:58;5.40;71.10
67050;DHT22;53955;52.442;13.284;2023-03-11T09:24:25;5.30;70.40
67050;DHT22;53955;52.442;13.284;2023-03-11T09:26:51;5.40;71.40
67050;DHT22;53955;52.442;13.284;2023-03-11T09:29:18;5.50;72.20
67050;DHT22;53955;52.442;13.284;2023-03-11T09:31:45;5.70;71.80
67050;DHT22;53955;52.442;13.284;2023-03-11T09:34:12;5.40;69.80
67050;DHT22;53955;52.442;13.284;2023-03-11T09:36:41;5.60;71.00
67050;DHT22;53955;52.442;13.284;2023-03-11T09:39:07;5.50;70.50
67050;DHT22;53955;52.442;13.284;2023-03-11T09:41:39;5.50;71.40
67050;DHT22;53955;52.442;13.284;2023-03-11T09:44:15;5.50;71.90
67050;DHT22;53955;52.442;13.284;2023-03-11T09:47:20;5.40;71.60
67050;DHT22;53955;52.442;13.284;2023-03-11T09:52:50;5.50;71.00
67050;DHT22;53955;52.442;13.284;2023-03-11T09:55:36;5.50;70.70
67050;DHT22;53955;52.442;13.284;2023-03-11T09:58:10;5.70;71.40
67050;DHT22;53955;52.442;13.284;2023-03-11T10:00:38;5.70;70.40
67050;DHT22;53955;52.442;13.284;2023-03-11T10:03:10;5.90;69.30
67050;DHT22;53955;52.442;13.284;2023-03-11T10:05:39;5.80;70.60
67050;DHT22;53955;52.442;13.284;2023-03-11T10:08:15;5.70;69.50
67050;DHT22;53955;52.442;13.284;2023-03-11T10:10:50;5.60;69.60
67050;DHT22;53955;52.442;13.284;2023-03-11T10:13:23;5.40;70.40
67050;DHT22;53955;52.442;13.284;2023-03-11T10:15:59;4.90;71.80
67050;DHT22;53955;52.442;13.284;2023-03-11T10:18:48;5.00;72.50
67050;DHT22;53955;52.442;13.284;2023-03-11T10:21:24;5.10;73.90
67050;DHT22;53955;52.442;13.284;2023-03-11T10:24:04;5.00;73.30
67050;DHT22;53955;52.442;13.284;2023-03-11T10:26:36;4.90;73.60
67050;DHT22;53955;52.442;13.284;2023-03-11T10:29:11;4.90;73.60
67050;DHT22;53955;52.442;13.284;2023-03-11T10:31:43;4.80;73.60
67050;DHT22;53955;52.442;13.284;2023-03-11T10:34:14;5.00;73.40
67050;DHT22;53955;52.442;13.284;2023-03-11T10:36:53;4.80;72.90
67050;DHT22;53955;52.442;13.284;2023-03-11T10:39:22;5.00;73.60
67050;DHT22;53955;52.442;13.284;2023-03-11T10:41:52;4.90;73.00
67050;DHT22;53955;52.442;13.284;2023-03-11T10:44:24;5.10;72.80
67050;DHT22;53955;52.442;13.284;2023-03-11T10:46:53;5.20;72.40
67050;DHT22;53955;52.442;13.284;2023-03-11T10:49:19;5.20;71.40
67050;DHT22;53955;52.442;13.284;2023-03-11T10:51:47;5.30;72.60
67050;DHT22;53955;52.442;13.284;2023-03-11T10:54:24;5.20;71.40
67050;DHT22;53955;52.442;13.284;2023-03-11T10:56:55;5.40;72.10
67050;DHT22;53955;52.442;13.284;2023-03-11T10:59:25;5.70;71.30
67050;DHT22;53955;52.442;13.284;2023-03-11T11:01:53;5.90;71.30
67050;DHT22;53955;52.442;13.284;2023-03-11T11:04:30;5.90;70.00
67050;DHT22;53955;52.442;13.284;2023-03-11T11:06:56;6.10;70.20
67050;DHT22;53955;52.442;13.284;2023-03-11T11:09:26;6.10;70.60
67050;DHT22;53955;52.442;13.284;2023-03-11T11:12:03;6.20;69.90
67050;DHT22;53955;52.442;13.284;2023-03-11T11:14:45;6.20;70.90
67050;DHT22;53955;52.442;13.284;2023-03-11T11:17:22;6.10;70.20
67050;DHT22;53955;52.442;13.284;2023-03-11T11:19:50;5.90;70.80
67050;DHT22;53955;52.442;13.284;2023-03-11T11:22:19;6.00;70.30
67050;DHT22;53955;52.442;13.284;2023-03-11T11:24:48;5.90;70.30
67050;DHT22;53955;52.442;13.284;2023-03-11T11:27:18;5.80;69.60
67050;DHT22;53955;52.442;13.284;2023-03-11T11:29:45;5.80;69.90
67050;DHT22;53955;52.442;13.284;2023-03-11T11:32:18;5.90;69.10
67050;DHT22;53955;52.442;13.284;2023-03-11T11:35:04;5.80;69.90
67050;DHT22;53955;52.442;13.284;2023-03-11T11:37:34;5.90;69.10
67050;DHT22;53955;52.442;13.284;2023-03-11T11:40:06;6.10;68.60
67050;DHT22;53955;52.442;13.284;2023-03-11T11:42:44;6.20;69.10
67050;DHT22;53955;52.442;13.284;2023-03-11T11:45:13;6.30;67.70
67050;DHT22;53955;52.442;13.284;2023-03-11T11:47:43;6.60;68.00
67050;DHT22;53955;52.442;13.284;2023-03-11T11:50:17;6.50;65.80
67050;DHT22;53955;52.442;13.284;2023-03-11T11:52:48;6.50;64.30
67050;DHT22;53955;52.442;13.284;2023-03-11T11:55:21;6.70;64.20
67050;DHT22;53955;52.442;13.284;2023-03-11T11:57:48;6.60;63.30
67050;DHT22;53955;52.442;13.284;2023-03-11T12:00:18;6.60;63.80
67050;DHT22;53955;52.442;13.284;2023-03-11T12:03:05;6.50;64.40
67050;DHT22;53955;52.442;13.284;2023-03-11T12:05:37;6.30;65.50
67050;DHT22;53955;52.442;13.284;2023-03-11T12:08:13;6.60;63.90
67050;DHT22;53955;52.442;13.284;2023-03-11T12:10:47;6.60;64.40
67050;DHT22;53955;52.442;13.284;2023-03-11T12:16:22;6.90;62.20
67050;DHT22;53955;52.442;13.284;2023-03-11T12:18:57;6.70;62.60
67050;DHT22;53955;52.442;13.284;2023-03-11T12:21:36;6.80;63.40
67050;DHT22;53955;52.442;13.284;2023-03-11T12:24:17;6.70;61.80
67050;DHT22;53955;52.442;13.284;2023-03-11T12:26:51;6.60;62.10
67050;DHT22;53955;52.442;13.284;2023-03-11T12:29:23;6.80;62.10
67050;DHT22;53955;52.442;13.284;2023-03-11T12:31:51;6.80;60.80
67050;DHT22;53955;52.442;13.284;2023-03-11T12:34:21;6.80;61.60
67050;DHT22;53955;52.442;13.284;2023-03-11T12:36:49;6.80;61.40
67050;DHT22;53955;52.442;13.284;2023-03-11T12:39:21;6.70;60.90
67050;DHT22;53955;52.442;13.284;2023-03-11T12:42:15;6.50;62.30
67050;DHT22;53955;52.442;13.284;2023-03-11T12:44:43;6.30;61.50
67050;DHT22;53955;52.442;13.284;2023-03-11T12:47:28;6.50;60.80
67050;DHT22;53955;52.442;13.284;2023-03-11T12:53:00;6.40;61.50
67050;DHT22;53955;52.442;13.284;2023-03-11T12:55:33;6.40;62.20
67050;DHT22;53955;52.442;13.284;2023-03-11T13:03:59;6.50;59.50
67050;DHT22;53955;52.442;13.284;2023-03-11T13:06:46;6.60;59.80
67050;DHT22;53955;52.442;13.284;2023-03-11T13:09:18;6.60;60.00
67050;DHT22;53955;52.442;13.284;2023-03-11T13:11:46;6.70;59.80
67050;DHT22;53955;52.442;13.284;2023-03-11T13:14:35;6.60;59.10
67050;DHT22;53955;52.442;13.284;2023-03-11T13:17:23;6.50;58.00
67050;DHT22;53955;52.442;13.284;2023-03-11T13:19:52;6.30;58.60
67050;DHT22;53955;52.442;13.284;2023-03-11T13:25:38;6.20;57.70
67050;DHT22;53955;52.442;13.284;2023-03-11T13:28:34;6.20;58.80
67050;DHT22;53955;52.442;13.284;2023-03-11T13:31:16;6.20;58.00
67050;DHT22;53955;52.442;13.284;2023-03-11T13:33:51;5.90;59.20
67050;DHT22;53955;52.442;13.284;2023-03-11T13:36:43;6.00;59.40
67050;DHT22;53955;52.442;13.284;2023-03-11T13:39:38;5.90;58.20
67050;DHT22;53955;52.442;13.284;2023-03-11T13:42:16;5.90;58.80
67050;DHT22;53955;52.442;13.284;2023-03-11T13:44:46;5.80;57.80
67050;DHT22;53955;52.442;13.284;2023-03-11T13:47:15;5.80;59.20
67050;DHT22;53955;52.442;13.284;2023-03-11T13:49:44;5.80;58.40
67050;DHT22;53955;52.442;13.284;2023-03-11T13:52:16;5.70;59.00
67050;DHT22;53955;52.442;13.284;2023-03-11T13:54:48;5.80;59.60
67050;DHT22;53955;52.442;13.284;2023-03-11T13:57:28;5.60;59.10
67050;DHT22;53955;52.442;13.284;2023-03-11T13:59:57;5.70;59.60
67050;DHT22;53955;52.442;13.284;2023-03-11T14:02:31;5.70;59.00
67050;DHT22;53955;52.442;13.284;2023-03-11T14:05:03;5.80;59.40
67050;DHT22;53955;52.442;13.284;2023-03-11T14:07:33;6.00;59.20
67050;DHT22;53955;52.442;13.284;2023-03-11T14:10:19;6.00;58.10
67050;DHT22;53955;52.442;13.284;2023-03-11T14:12:46;6.00;58.00
67050;DHT22;53955;52.442;13.284;2023-03-11T14:15:14;6.00;59.50
67050;DHT22;53955;52.442;13.284;2023-03-11T14:17:44;6.20;57.70
67050;DHT22;53955;52.442;13.284;2023-03-11T14:20:15;6.10;57.20
67050;DHT22;53955;52.442;13.284;2023-03-11T14:22:46;6.30;56.90
67050;DHT22;53955;52.442;13.284;2023-03-11T14:25:17;6.10;55.50
67050;DHT22;53955;52.442;13.284;2023-03-11T14:27:52;6.40;56.20
67050;DHT22;53955;52.442;13.284;2023-03-11T14:30:22;6.50;55.70
67050;DHT22;53955;52.442;13.284;2023-03-11T14:32:59;6.50;56.00
67050;DHT22;53955;52.442;13.284;2023-03-11T14:35:26;6.60;54.80
67050;DHT22;53955;52.442;13.284;2023-03-11T14:37:52;6.60;54.40
67050;DHT22;53955;52.442;13.284;2023-03-11T14:40:25;6.40;53.40
67050;DHT22;53955;52.442;13.284;2023-03-11T14:42:53;6.40;53.40
67050;DHT22;53955;52.442;13.284;2023-03-11T14:45:22;6.10;52.70
67050;DHT22;53955;52.442;13.284;2023-03-11T14:47:52;6.00;53.60
67050;DHT22;53955;52.442;13.284;2023-03-11T14:50:22;6.00;53.90
67050;DHT22;53955;52.442;13.284;2023-03-11T14:52:52;6.10;53.80
67050;DHT22;53955;52.442;13.284;2023-03-11T14:55:22;6.20;53.20
67050;DHT22;53955;52.442;13.284;2023-03-11T14:57:53;6.20;53.80
67050;DHT22;53955;52.442;13.284;2023-03-11T15:00:23;6.30;53.40
67050;DHT22;53955;52.442;13.284;2023-03-11T15:03:03;6.30;53.80
67050;DHT22;53955;52.442;13.284;2023-03-11T15:05:41;6.60;54.50
67050;DHT22;53955;52.442;13.284;2023-03-11T15:08:09;6.70;51.30
67050;DHT22;53955;52.442;13.284;2023-03-11T15:10:36;6.50;50.60
67050;DHT22;53955;52.442;13.284;2023-03-11T15:13:05;6.60;50.70
67050;DHT22;53955;52.442;13.284;2023-03-11T15:15:31;6.70;51.40
67050;DHT22;53955;52.442;13.284;2023-03-11T15:17:59;6.70;50.20
67050;DHT22;53955;52.442;13.284;2023-03-11T15:20:28;6.70;50.40
67050;DHT22;53955;52.442;13.284;2023-03-11T15:22:58;6.70;49.80
67050;DHT22;53955;52.442;13.284;2023-03-11T15:25:27;6.40;50.00
67050;DHT22;53955;52.442;13.284;2023-03-11T15:27:54;6.30;50.30
67050;DHT22;53955;52.442;13.284;2023-03-11T15:30:24;6.30;49.70
67050;DHT22;53955;52.442;13.284;2023-03-11T15:32:53;6.20;50.10
67050;DHT22;53955;52.442;13.284;2023-03-11T15:35:21;6.20;51.20
67050;DHT22;53955;52.442;13.284;2023-03-11T15:37:51;6.00;50.80
67050;DHT22;53955;52.442;13.284;2023-03-11T15:40:37;6.00;50.80
67050;DHT22;53955;52.442;13.284;2023-03-11T15:43:23;6.10;50.90
67050;DHT22;53955;52.442;13.284;2023-03-11T15:45:53;5.90;49.10
67050;DHT22;53955;52.442;13.284;2023-03-11T15:48:20;5.80;50.00
67050;DHT22;53955;52.442;13.284;2023-03-11T15:50:48;5.90;48.90
67050;DHT22;53955;52.442;13.284;2023-03-11T15:53:15;5.70;49.00
67050;DHT22;53955;52.442;13.284;2023-03-11T15:55:43;5.90;49.60
67050;DHT22;53955;52.442;13.284;2023-03-11T15:58:11;6.00;49.50
67050;DHT22;53955;52.442;13.284;2023-03-11T16:00:41;5.80;49.80
67050;DHT22;53955;52.442;13.284;2023-03-11T16:03:08;5.70;50.00
67050;DHT22;53955;52.442;13.284;2023-03-11T16:05:34;5.90;49.00